Startpagina
METAR-TAF:

METAR-TAF

Vliegvelden :

Aeropuerto de Almería

Almería, Spanje

breedte: 36-51N, lengte: 002-23W, hoogte: 15 m

Actueel weer

Dit bericht is 32 minuten geleden gemaakt, om 09:30 UTC
Weinig wind
Temperatuur 17°C
Vochtigheid 59%
Druk 1026 hPa
Zicht 10 km of meer
geen wolken onder 1500 m en geen cumulonimbus

METAR: LEAM 270930Z 00000KT CAVOK 17/09 Q1026

Tijdstip: 11:02 (10:02 UTC)

Verwachting

Dit bericht is 5 uur en het 2 minuten geleden gemaakt, om 05:00 UTC
Verwachting geldig van 27 om 06 UTC tot 28 om 06 UTC
Wind 8 kt uit het noorden
Zicht 10 km of meer
geen wolken onder 1500 m en geen cumulonimbus
Wijzigt naar
van 27 om 11 UTC tot 27 om 13 UTC
Wind 10 kt uit het zuidzuidwesten
Wijzigt naar
van 27 om 16 UTC tot 27 om 18 UTC
Wind 2 kt uit variabele richting

TAF: LEAM 270500Z 2706/2806 35008KT CAVOK TX19/2713Z TN11/2706Z BECMG 2711/2713 20010KT BECMG 2716/2718 VRB02KT

Waarnemingen en weersverwachtingen van meer dan 4000 vliegvelden (METAR en TAF).

De beschikbare stations zijn de gele en rode punten op de kaart.

Ga met uw muis naar het station om de naam te zien.

Klik dan om waarnemingen en weersverwachtingen te zien.

kaart wijzigen: klik op de groene knoppen met een zwart kruis om in te zoomen, op de groene knop met een streepje om uit te zoomen of op de groene pijlen voor aangrenzende kaarten.


METAR-TAF: